createdAt,value
2017-10-09T00:00:53.696Z,8.3
2017-10-09T00:01:55.669Z,8.3
2017-10-09T00:02:57.915Z,8.3
2017-10-09T00:03:59.828Z,8.3
2017-10-09T00:05:01.760Z,8.3
2017-10-09T00:06:03.721Z,8.3
2017-10-09T00:07:05.674Z,8.3
2017-10-09T00:08:08.107Z,8.3
2017-10-09T00:09:10.151Z,8.3
2017-10-09T00:10:12.068Z,8.3
2017-10-09T00:11:14.024Z,8.2
2017-10-09T00:12:15.965Z,8.2
2017-10-09T00:13:18.224Z,8.3
2017-10-09T00:14:20.428Z,8.2
2017-10-09T00:15:22.368Z,8.3
2017-10-09T00:16:26.847Z,8.3
2017-10-09T00:17:28.784Z,8.3
2017-10-09T00:18:31.078Z,8.3
2017-10-09T00:19:32.990Z,8.2
2017-10-09T00:20:34.900Z,8.3
2017-10-09T00:21:36.847Z,8.2
2017-10-09T00:22:38.848Z,8.2
2017-10-09T00:23:41.213Z,8.2
2017-10-09T00:24:43.205Z,8.3
2017-10-09T00:25:45.209Z,8.3
2017-10-09T00:26:47.183Z,8.3
2017-10-09T00:27:49.133Z,8.2
2017-10-09T00:28:52.052Z,8.2
2017-10-09T00:29:54.088Z,8.2
2017-10-09T00:30:55.996Z,8.1
2017-10-09T00:31:57.948Z,8.2
2017-10-09T00:32:59.946Z,8.2
2017-10-09T00:34:02.221Z,8.1
2017-10-09T00:35:04.123Z,8.2
2017-10-09T00:36:06.108Z,8.2
2017-10-09T00:37:08.051Z,8.1
2017-10-09T00:38:09.996Z,8.2
2017-10-09T00:39:12.252Z,8.1
2017-10-09T00:40:14.146Z,8.1
2017-10-09T00:41:16.156Z,8.2
2017-10-09T00:42:18.155Z,8.3
2017-10-09T00:43:20.151Z,8.2
2017-10-09T00:44:22.406Z,8.3
2017-10-09T00:45:24.371Z,8.3
2017-10-09T00:46:26.289Z,8.3
2017-10-09T00:47:28.248Z,8.3
2017-10-09T00:48:30.213Z,8.3
2017-10-09T00:49:32.497Z,8.3
2017-10-09T00:50:34.467Z,8.3
2017-10-09T00:51:36.440Z,8.4
2017-10-09T00:52:38.463Z,8.3
2017-10-09T00:53:40.395Z,8.3
2017-10-09T00:54:42.681Z,8.2
2017-10-09T00:55:44.657Z,8.2
2017-10-09T00:56:46.622Z,8.2
2017-10-09T00:57:48.600Z,8.2
2017-10-09T00:58:50.563Z,8.2
2017-10-09T00:59:53.957Z,8.2
2017-10-09T01:00:55.964Z,8.1
2017-10-09T01:01:57.957Z,8.1
2017-10-09T01:02:59.915Z,8.1
2017-10-09T01:04:01.862Z,8.1
2017-10-09T01:05:04.171Z,8.1
2017-10-09T01:06:06.161Z,8.2
2017-10-09T01:07:08.083Z,8.1
2017-10-09T01:08:10.028Z,8.1
2017-10-09T01:09:12.022Z,8
2017-10-09T01:10:14.218Z,8
2017-10-09T01:11:16.330Z,8.1
2017-10-09T01:12:18.255Z,8.1
2017-10-09T01:13:20.196Z,8.1
2017-10-09T01:14:22.115Z,8
2017-10-09T01:15:24.416Z,8.1
2017-10-09T01:16:26.346Z,8.1
2017-10-09T01:17:28.262Z,8.1
2017-10-09T01:18:30.245Z,8.1
2017-10-09T01:19:32.286Z,8.1
2017-10-09T01:20:34.588Z,8.1
2017-10-09T01:21:36.544Z,8.1
2017-10-09T01:22:38.454Z,8.2
2017-10-09T01:23:40.462Z,8.3
2017-10-09T01:24:42.359Z,8.2
2017-10-09T01:25:44.555Z,8.1
2017-10-09T01:26:46.468Z,8.2
2017-10-09T01:27:48.380Z,8.2
2017-10-09T01:28:50.361Z,8.2
2017-10-09T01:29:52.306Z,8.2
2017-10-09T01:30:54.905Z,8.2
2017-10-09T01:31:56.837Z,8.3
2017-10-09T01:32:58.706Z,8.3
2017-10-09T01:34:00.665Z,8.3
2017-10-09T01:35:02.641Z,8.2
2017-10-09T01:36:05.017Z,8.3
2017-10-09T01:37:06.989Z,8.3
2017-10-09T01:38:08.963Z,8.3
2017-10-09T01:39:10.886Z,8.3
2017-10-09T01:40:13.085Z,8.4
2017-10-09T01:41:15.402Z,8.4
2017-10-09T01:42:17.367Z,8.3
2017-10-09T01:43:19.302Z,8.3
2017-10-09T01:44:21.153Z,8.3
2017-10-09T01:45:23.105Z,8.3
2017-10-09T01:46:25.570Z,8.3
2017-10-09T01:47:27.471Z,8.4
2017-10-09T01:48:29.405Z,8.4
2017-10-09T01:49:31.326Z,8.3
2017-10-09T01:50:33.230Z,8.4
2017-10-09T01:51:35.564Z,8.4
2017-10-09T01:52:37.503Z,8.4
2017-10-09T01:53:39.453Z,8.4
2017-10-09T01:54:41.348Z,8.4
2017-10-09T01:55:43.265Z,8.3
2017-10-09T01:56:45.486Z,8.3
2017-10-09T01:57:47.373Z,8.3
2017-10-09T01:58:49.310Z,8.3
2017-10-09T01:59:51.248Z,8.3
2017-10-09T02:00:53.172Z,8.3
2017-10-09T02:01:55.429Z,8.3
2017-10-09T02:02:57.335Z,8.3
2017-10-09T02:03:59.244Z,8.3
2017-10-09T02:05:01.206Z,8.3
2017-10-09T02:06:03.493Z,8.3
2017-10-09T02:07:05.851Z,8.3
2017-10-09T02:08:07.757Z,8.3
2017-10-09T02:09:09.650Z,8.3
2017-10-09T02:10:11.672Z,8.3
2017-10-09T02:11:13.652Z,8.3
2017-10-09T02:12:16.003Z,8.3
2017-10-09T02:13:17.977Z,8.4
2017-10-09T02:14:19.920Z,8.3
2017-10-09T02:15:21.908Z,8.3
2017-10-09T02:16:23.832Z,8.3
2017-10-09T02:17:26.164Z,8.3
2017-10-09T02:18:28.109Z,8.4
2017-10-09T02:19:30.303Z,8.4
2017-10-09T02:20:32.387Z,8.3
2017-10-09T02:21:34.323Z,8.4
2017-10-09T02:22:36.784Z,8.4
2017-10-09T02:23:38.773Z,8.4
2017-10-09T02:24:40.692Z,8.4
2017-10-09T02:25:42.642Z,8.4
2017-10-09T02:26:44.590Z,8.4
2017-10-09T02:27:46.938Z,8.4
2017-10-09T02:28:48.882Z,8.4
2017-10-09T02:29:50.834Z,8.4
2017-10-09T02:30:52.824Z,8.4
2017-10-09T02:31:54.903Z,8.5
2017-10-09T02:32:57.216Z,8.5
2017-10-09T02:33:59.177Z,8.5
2017-10-09T02:35:01.381Z,8.5
2017-10-09T02:36:03.331Z,8.6
2017-10-09T02:37:05.282Z,8.6
2017-10-09T02:38:07.518Z,8.6
2017-10-09T02:39:09.476Z,8.6
2017-10-09T02:40:11.450Z,8.6
2017-10-09T02:41:13.380Z,8.6
2017-10-09T02:42:15.289Z,8.6
2017-10-09T02:43:17.473Z,8.6
2017-10-09T02:44:19.477Z,8.7
2017-10-09T02:45:21.387Z,8.7
2017-10-09T02:46:23.428Z,8.7
2017-10-09T02:47:25.370Z,8.7
2017-10-09T02:48:27.576Z,8.7
2017-10-09T02:49:29.797Z,8.7
2017-10-09T02:50:31.718Z,8.7
2017-10-09T02:51:33.698Z,8.7
2017-10-09T02:52:35.651Z,8.7
2017-10-09T02:53:37.913Z,8.8
2017-10-09T02:54:39.848Z,8.7
2017-10-09T02:55:42.125Z,8.7
2017-10-09T02:56:44.056Z,8.7
2017-10-09T02:57:45.994Z,8.8
2017-10-09T02:58:48.314Z,8.7
2017-10-09T02:59:50.262Z,8.8
2017-10-09T03:00:52.398Z,8.8
2017-10-09T03:01:54.371Z,8.8
2017-10-09T03:02:56.318Z,8.8
2017-10-09T03:03:58.628Z,8.9
2017-10-09T03:05:00.592Z,8.8
2017-10-09T03:06:02.553Z,8.8
2017-10-09T03:07:04.575Z,8.7
2017-10-09T03:08:06.500Z,8.7
2017-10-09T03:09:08.701Z,8.8
2017-10-09T03:10:10.622Z,8.7
2017-10-09T03:11:12.553Z,8.8
2017-10-09T03:12:14.516Z,8.8
2017-10-09T03:13:16.491Z,8.8
2017-10-09T03:14:18.994Z,8.8
2017-10-09T03:15:20.911Z,8.8
2017-10-09T03:16:22.874Z,8.9
2017-10-09T03:17:24.826Z,8.9
2017-10-09T03:18:26.770Z,9.1
2017-10-09T03:19:28.936Z,8.9
2017-10-09T03:20:30.864Z,8.9
2017-10-09T03:21:32.851Z,8.8
2017-10-09T03:22:34.759Z,8.8
2017-10-09T03:23:36.722Z,8.8
2017-10-09T03:24:38.983Z,8.8
2017-10-09T03:25:40.950Z,8.8
2017-10-09T03:26:42.847Z,8.8
2017-10-09T03:27:44.758Z,8.9
2017-10-09T03:28:46.701Z,9
2017-10-09T03:29:48.973Z,8.9
2017-10-09T03:30:50.945Z,8.9
2017-10-09T03:31:52.861Z,8.8
2017-10-09T03:32:54.772Z,8.8
2017-10-09T03:33:56.728Z,8.8
2017-10-09T03:34:59.010Z,8.7
2017-10-09T03:36:00.913Z,8.7
2017-10-09T03:37:02.804Z,8.8
2017-10-09T03:38:04.774Z,8.8
2017-10-09T03:39:06.705Z,8.8
2017-10-09T03:40:08.948Z,8.8
2017-10-09T03:41:10.826Z,8.8
2017-10-09T03:42:12.728Z,8.9
2017-10-09T03:43:14.651Z,8.9
2017-10-09T03:44:16.542Z,9
2017-10-09T03:45:18.866Z,8.9
2017-10-09T03:46:20.849Z,8.9
2017-10-09T03:47:22.812Z,8.9
2017-10-09T03:48:24.717Z,8.9
2017-10-09T03:49:26.718Z,8.9
2017-10-09T03:50:28.977Z,8.9
2017-10-09T03:51:30.895Z,8.9
2017-10-09T03:52:32.931Z,8.9
2017-10-09T03:53:34.844Z,8.9
2017-10-09T03:54:36.794Z,8.9
2017-10-09T03:55:39.072Z,8.9
2017-10-09T03:56:40.976Z,8.9
2017-10-09T03:57:42.966Z,9
2017-10-09T03:58:44.895Z,9
2017-10-09T03:59:46.826Z,9
2017-10-09T04:00:49.007Z,9
2017-10-09T04:01:50.954Z,8.9
2017-10-09T04:02:52.865Z,9
2017-10-09T04:03:54.796Z,9
2017-10-09T04:04:56.707Z,9.1
2017-10-09T04:05:59.048Z,9
2017-10-09T04:07:00.977Z,9
2017-10-09T04:08:02.904Z,9
2017-10-09T04:09:04.888Z,9
2017-10-09T04:10:06.822Z,9
2017-10-09T04:11:09.097Z,9
2017-10-09T04:12:11.055Z,9
2017-10-09T04:13:12.958Z,9
2017-10-09T04:14:14.861Z,9
2017-10-09T04:15:16.770Z,9
2017-10-09T04:16:19.088Z,9
2017-10-09T04:17:21.037Z,9
2017-10-09T04:18:22.942Z,9
2017-10-09T04:19:25.107Z,8.9
2017-10-09T04:20:27.015Z,9
2017-10-09T04:21:29.647Z,9
2017-10-09T04:22:31.729Z,9
2017-10-09T04:23:33.684Z,9.1
2017-10-09T04:24:35.697Z,9.1
2017-10-09T04:25:37.969Z,9
2017-10-09T04:26:40.201Z,9.1
2017-10-09T04:27:42.207Z,9.1
2017-10-09T04:28:44.133Z,9
2017-10-09T04:29:46.720Z,9
2017-10-09T04:30:48.641Z,9.1
2017-10-09T04:31:50.945Z,9
2017-10-09T04:32:52.879Z,9
2017-10-09T04:33:54.856Z,9.1
2017-10-09T04:34:57.084Z,9
2017-10-09T04:35:59.107Z,9.1
2017-10-09T04:37:01.350Z,9
2017-10-09T04:38:03.290Z,9
2017-10-09T04:39:05.340Z,9
2017-10-09T04:40:07.291Z,9
2017-10-09T04:41:09.207Z,9
2017-10-09T04:42:11.421Z,8.9
2017-10-09T04:43:14.012Z,9
2017-10-09T04:44:15.950Z,8.9
2017-10-09T04:45:17.897Z,9
2017-10-09T04:46:19.832Z,9
2017-10-09T04:47:22.247Z,9
2017-10-09T04:48:24.174Z,9
2017-10-09T04:49:26.122Z,9
2017-10-09T04:50:28.055Z,9
2017-10-09T04:51:29.995Z,9
2017-10-09T04:52:32.251Z,8.9
2017-10-09T04:53:34.153Z,8.9
2017-10-09T04:54:36.056Z,9
2017-10-09T04:55:38.017Z,9
2017-10-09T04:56:40.046Z,9
2017-10-09T04:57:42.393Z,9.1
2017-10-09T04:58:44.351Z,9
2017-10-09T04:59:46.257Z,9.1
2017-10-09T05:00:48.255Z,9.1
2017-10-09T05:01:50.249Z,9
2017-10-09T05:02:52.431Z,9
2017-10-09T05:03:54.403Z,9
2017-10-09T05:04:56.376Z,9
2017-10-09T05:05:58.385Z,9
2017-10-09T05:07:00.270Z,9.1
2017-10-09T05:08:02.567Z,9
2017-10-09T05:09:04.532Z,9
2017-10-09T05:10:06.495Z,9.1
2017-10-09T05:11:08.500Z,9.1
2017-10-09T05:12:10.494Z,9
2017-10-09T05:13:12.735Z,9
2017-10-09T05:14:14.657Z,9
2017-10-09T05:15:16.633Z,9
2017-10-09T05:16:18.834Z,9
2017-10-09T05:17:20.807Z,9.1
2017-10-09T05:18:23.072Z,9.1
2017-10-09T05:19:25.183Z,9.1
2017-10-09T05:20:27.105Z,9
2017-10-09T05:21:29.034Z,9
2017-10-09T05:22:30.960Z,9
2017-10-09T05:23:33.297Z,9
2017-10-09T05:24:35.246Z,9.1
2017-10-09T05:25:37.218Z,9.1
2017-10-09T05:26:39.146Z,9.1
2017-10-09T05:27:41.074Z,9.1
2017-10-09T05:28:43.574Z,9.1
2017-10-09T05:29:45.620Z,9
2017-10-09T05:30:47.547Z,9
2017-10-09T05:31:49.502Z,9.1
2017-10-09T05:32:51.424Z,9.1
2017-10-09T05:33:53.730Z,9.1
2017-10-09T05:34:55.743Z,9.1
2017-10-09T05:35:57.686Z,9.1
2017-10-09T05:36:59.724Z,9
2017-10-09T05:38:01.704Z,9.1
2017-10-09T05:39:03.947Z,9.1
2017-10-09T05:40:05.844Z,9.1
2017-10-09T05:41:07.830Z,9.1
2017-10-09T05:42:09.850Z,9.1
2017-10-09T05:43:11.840Z,9.1
2017-10-09T05:44:14.039Z,9.1
2017-10-09T05:45:16.007Z,9.1
2017-10-09T05:46:17.981Z,9.2
2017-10-09T05:47:19.944Z,9.1
2017-10-09T05:48:21.901Z,9.1
2017-10-09T05:49:24.150Z,9.1
2017-10-09T05:50:26.158Z,9.1
2017-10-09T05:51:28.213Z,9.2
2017-10-09T05:52:30.297Z,9.2
2017-10-09T05:53:32.237Z,9.1
2017-10-09T05:54:34.497Z,9.2
2017-10-09T05:55:36.422Z,9.2
2017-10-09T05:56:38.476Z,9.2
2017-10-09T05:57:40.453Z,9.2
2017-10-09T05:58:42.438Z,9.2
2017-10-09T05:59:44.815Z,9.2
2017-10-09T06:00:46.778Z,9.2
2017-10-09T06:01:48.717Z,9.2
2017-10-09T06:02:50.721Z,9.2
2017-10-09T06:03:52.677Z,9.2
2017-10-09T06:04:54.987Z,9.2
2017-10-09T06:05:56.963Z,9.2
2017-10-09T06:06:58.903Z,9.2
2017-10-09T06:08:00.893Z,9.3
2017-10-09T06:09:02.865Z,9.3
2017-10-09T06:10:05.284Z,9.3
2017-10-09T06:11:07.235Z,9.3
2017-10-09T06:12:09.209Z,9.3
2017-10-09T06:13:11.107Z,9.2
2017-10-09T06:14:13.112Z,9.2
2017-10-09T06:15:15.724Z,9.2
2017-10-09T06:16:17.741Z,9.2
2017-10-09T06:17:19.709Z,9.3
2017-10-09T06:18:21.746Z,9.3
2017-10-09T06:19:23.758Z,9.3
2017-10-09T06:20:26.015Z,9.3
2017-10-09T06:21:27.949Z,9.3
2017-10-09T06:22:29.986Z,9.3
2017-10-09T06:23:31.963Z,9.4
2017-10-09T06:24:33.940Z,9.3
2017-10-09T06:25:36.264Z,9.4
2017-10-09T06:26:38.173Z,9.4
2017-10-09T06:27:40.128Z,9.5
2017-10-09T06:28:42.236Z,9.4
2017-10-09T06:29:44.181Z,9.4
2017-10-09T06:30:46.489Z,9.4
2017-10-09T06:31:48.411Z,9.4
2017-10-09T06:32:50.441Z,9.4
2017-10-09T06:33:52.413Z,9.4
2017-10-09T06:34:54.356Z,9.4
2017-10-09T06:35:56.719Z,9.4
2017-10-09T06:36:58.718Z,9.5
2017-10-09T06:38:00.718Z,9.4
2017-10-09T06:39:02.645Z,9.5
2017-10-09T06:40:04.663Z,9.5
2017-10-09T06:41:06.937Z,9.5
2017-10-09T06:42:08.976Z,9.5
2017-10-09T06:43:10.898Z,9.5
2017-10-09T06:44:12.956Z,9.5
2017-10-09T06:45:14.943Z,9.5
2017-10-09T06:46:17.180Z,9.4
2017-10-09T06:47:19.297Z,9.4
2017-10-09T06:48:21.221Z,9.5
2017-10-09T06:49:23.200Z,9.6
2017-10-09T06:50:25.206Z,9.6
2017-10-09T06:51:27.465Z,9.5
2017-10-09T06:52:29.420Z,9.5
2017-10-09T06:53:31.382Z,9.6
2017-10-09T06:54:33.449Z,9.6
2017-10-09T06:55:35.430Z,9.6
2017-10-09T06:56:37.822Z,9.8
2017-10-09T06:57:39.774Z,9.8
2017-10-09T06:58:41.781Z,9.8
2017-10-09T06:59:43.790Z,9.7
2017-10-09T07:00:45.780Z,9.7
2017-10-09T07:01:47.771Z,9.7
2017-10-09T07:02:49.740Z,9.7
2017-10-09T07:03:51.705Z,9.7
2017-10-09T07:04:53.593Z,9.7
2017-10-09T07:05:55.711Z,9.8
2017-10-09T07:06:58.041Z,9.8
2017-10-09T07:07:59.987Z,9.8
2017-10-09T07:09:01.981Z,9.9
2017-10-09T07:10:03.982Z,9.9
2017-10-09T07:11:05.967Z,9.9
2017-10-09T07:12:08.186Z,10.1
2017-10-09T07:13:10.198Z,10.1
2017-10-09T07:14:12.147Z,10.1
2017-10-09T07:15:14.040Z,10
2017-10-09T07:16:16.029Z,9.9
2017-10-09T07:17:18.296Z,9.9
2017-10-09T07:18:20.308Z,10
2017-10-09T07:19:22.206Z,10.1
2017-10-09T07:20:24.206Z,10
2017-10-09T07:21:26.205Z,10.2
2017-10-09T07:22:28.505Z,10.2
2017-10-09T07:23:30.429Z,10.2
2017-10-09T07:24:32.703Z,10.3
2017-10-09T07:25:34.606Z,10.2
2017-10-09T07:26:36.554Z,10.2
2017-10-09T07:27:38.852Z,10.1
2017-10-09T07:28:40.832Z,10.1
2017-10-09T07:29:42.894Z,10.2
2017-10-09T07:30:45.001Z,10.3
2017-10-09T07:31:46.973Z,10.4
2017-10-09T07:32:49.271Z,10.4
2017-10-09T07:33:51.164Z,10.4
2017-10-09T07:34:53.171Z,10.3
2017-10-09T07:35:55.277Z,10.3
2017-10-09T07:36:57.219Z,10.2
2017-10-09T07:37:59.671Z,10.3
2017-10-09T07:39:01.663Z,10.4
2017-10-09T07:40:03.566Z,10.3
2017-10-09T07:41:05.565Z,10.5
2017-10-09T07:42:07.609Z,10.5
2017-10-09T07:43:10.103Z,10.5
2017-10-09T07:44:11.993Z,10.7
2017-10-09T07:45:13.999Z,11
2017-10-09T07:46:15.934Z,11
2017-10-09T07:47:18.007Z,11
2017-10-09T07:48:20.457Z,11
2017-10-09T07:49:22.388Z,11
2017-10-09T07:50:24.397Z,11.4
2017-10-09T07:51:26.355Z,11.3
2017-10-09T07:52:28.378Z,11.4
2017-10-09T07:53:30.687Z,11.3
2017-10-09T07:54:32.660Z,11.2
2017-10-09T07:55:34.609Z,11.1
2017-10-09T07:56:36.630Z,11
2017-10-09T07:57:38.603Z,11.1
2017-10-09T07:58:40.887Z,11.1
2017-10-09T07:59:42.803Z,11.2
2017-10-09T08:00:44.778Z,11.1
2017-10-09T08:01:46.726Z,10.9
2017-10-09T08:02:48.694Z,10.6
2017-10-09T08:03:50.954Z,10.6
2017-10-09T08:04:53.163Z,10.6
2017-10-09T08:05:55.132Z,10.8
2017-10-09T08:06:57.154Z,10.9
2017-10-09T08:07:59.161Z,11
2017-10-09T08:09:01.648Z,11
2017-10-09T08:10:03.604Z,11.3
2017-10-09T08:11:05.543Z,11.2
2017-10-09T08:12:07.614Z,11
2017-10-09T08:13:09.684Z,11
2017-10-09T08:14:13.757Z,11.1
2017-10-09T08:15:15.677Z,11
2017-10-09T08:16:17.672Z,11.1
2017-10-09T08:17:19.624Z,11.1
2017-10-09T08:18:21.620Z,11
2017-10-09T08:19:23.923Z,11.1
2017-10-09T08:20:25.950Z,11.2
2017-10-09T08:21:27.861Z,11.4
2017-10-09T08:22:29.838Z,11.4
2017-10-09T08:23:31.786Z,11.6
2017-10-09T08:24:34.079Z,11.6
2017-10-09T08:25:36.041Z,11.5
2017-10-09T08:26:37.991Z,11.6
2017-10-09T08:27:40.013Z,11.8
2017-10-09T08:28:42.047Z,12.1
2017-10-09T08:29:44.304Z,11.8
2017-10-09T08:30:46.266Z,12
2017-10-09T08:31:48.258Z,12.1
2017-10-09T08:32:50.242Z,13.8
2017-10-09T08:33:52.234Z,13.7
2017-10-09T08:34:54.535Z,13.2
2017-10-09T08:35:56.521Z,13.4
2017-10-09T08:36:58.555Z,12.6
2017-10-09T08:38:00.498Z,12.7
2017-10-09T08:39:04.712Z,12.7
2017-10-09T08:40:07.114Z,12.7
2017-10-09T08:43:28.869Z,12.7
2017-10-09T08:44:30.905Z,12.8
2017-10-09T08:56:06.624Z,13.1
2017-10-09T08:57:14.374Z,13.1
2017-10-09T08:58:16.480Z,13.4
2017-10-09T09:02:51.344Z,14.4
2017-10-09T09:07:36.900Z,15.4
2017-10-09T09:08:44.563Z,15.6
2017-10-09T09:09:51.757Z,16.1
2017-10-09T09:10:59.146Z,15.6
2017-10-09T09:13:08.862Z,15.7
2017-10-09T09:20:02.221Z,16.8
2017-10-09T09:21:09.344Z,16.1
2017-10-09T09:22:13.270Z,16.1
2017-10-09T09:23:20.542Z,16.9
2017-10-09T09:24:27.880Z,16.1
2017-10-09T09:27:55.623Z,16.4
2017-10-09T09:28:57.734Z,15.9
2017-10-09T09:32:26.072Z,13.9
2017-10-09T09:33:28.167Z,13.7
2017-10-09T09:34:30.245Z,13.7
2017-10-09T09:39:05.120Z,14.8
2017-10-09T09:40:12.474Z,14.5
2017-10-09T09:41:14.657Z,14.4
2017-10-09T09:44:37.096Z,14
2017-10-09T09:46:51.784Z,14.3
2017-10-09T09:51:26.755Z,13.9
2017-10-09T09:52:28.925Z,13.5
2017-10-09T09:53:31.204Z,13.4
2017-10-09T09:54:35.449Z,13.2
2017-10-09T09:55:37.346Z,13.2
2017-10-09T09:56:39.266Z,13.3
2017-10-09T09:57:41.313Z,13.4
2017-10-09T09:58:43.758Z,13.3
2017-10-09T09:59:45.740Z,13.5
2017-10-09T10:00:47.703Z,13.6
2017-10-09T10:01:49.746Z,13.8
2017-10-09T10:02:51.720Z,13.3
2017-10-09T10:03:54.047Z,13.3
2017-10-09T10:04:56.056Z,13.2
2017-10-09T10:05:58.024Z,13.2
2017-10-09T10:06:59.998Z,13.3
2017-10-09T10:08:02.039Z,13
2017-10-09T10:09:04.396Z,13.2
2017-10-09T10:10:06.457Z,13.4
2017-10-09T10:11:08.471Z,13.3
2017-10-09T10:12:12.195Z,13.6
2017-10-09T10:13:14.120Z,14
2017-10-09T10:14:16.250Z,14.7
2017-10-09T10:15:18.537Z,14.9
2017-10-09T10:16:20.607Z,14.8
2017-10-09T10:17:22.675Z,14.7
2017-10-09T10:18:24.771Z,14.4
2017-10-09T10:19:26.793Z,14.4
2017-10-09T10:20:28.800Z,14.3
2017-10-09T10:21:30.768Z,14.3
2017-10-09T10:22:33.002Z,14
2017-10-09T10:23:34.979Z,14.1
2017-10-09T10:24:36.915Z,13.6
2017-10-09T10:25:38.887Z,13.4
2017-10-09T10:26:40.786Z,13.3
2017-10-09T10:27:42.818Z,13.3
2017-10-09T10:28:44.782Z,13.4
2017-10-09T10:29:47.072Z,13.4
2017-10-09T10:30:49.120Z,13.3
2017-10-09T10:31:51.124Z,13.3
2017-10-09T10:32:53.141Z,13.2
2017-10-09T10:33:55.095Z,13.2
2017-10-09T10:34:57.357Z,13.1
2017-10-09T10:35:59.321Z,13.1
2017-10-09T10:37:01.950Z,13.1
2017-10-09T10:38:03.889Z,13.1
2017-10-09T10:39:05.781Z,13
2017-10-09T10:40:10.879Z,13.1
2017-10-09T10:41:12.905Z,13.2
2017-10-09T10:42:14.931Z,13
2017-10-09T10:43:16.885Z,13.1
2017-10-09T10:44:18.827Z,13.1
2017-10-09T10:45:21.343Z,13.1
2017-10-09T10:46:23.320Z,13.2
2017-10-09T10:47:25.275Z,13
2017-10-09T10:48:27.317Z,13.1
2017-10-09T10:49:29.262Z,13.3
2017-10-09T10:50:31.595Z,13.3
2017-10-09T10:51:33.597Z,13.6
2017-10-09T10:52:35.522Z,13.7
2017-10-09T10:53:37.502Z,14
2017-10-09T10:54:39.522Z,14.3
2017-10-09T10:55:41.835Z,14.4
2017-10-09T10:56:43.777Z,14.4
2017-10-09T10:57:45.729Z,14.5
2017-10-09T10:58:47.662Z,14.3
2017-10-09T10:59:49.654Z,14.2
2017-10-09T11:00:51.985Z,14.2
2017-10-09T11:01:53.923Z,14.5
2017-10-09T11:02:55.922Z,14.5
2017-10-09T11:03:57.938Z,14.5
2017-10-09T11:04:59.926Z,14.4
2017-10-09T11:06:02.219Z,14.5
2017-10-09T11:07:04.230Z,14.4
2017-10-09T11:08:06.532Z,14.3
2017-10-09T11:09:08.600Z,14.3
2017-10-09T11:10:11.129Z,14.4
2017-10-09T11:11:13.396Z,14.5
2017-10-09T11:12:15.377Z,14.6
2017-10-09T11:13:17.677Z,14.5
2017-10-09T11:14:19.631Z,14.4
2017-10-09T11:15:21.891Z,14.3
2017-10-09T11:16:24.203Z,14.4
2017-10-09T11:17:26.142Z,14.4
2017-10-09T11:18:28.067Z,14.4
2017-10-09T11:19:29.990Z,14.5
2017-10-09T11:20:31.922Z,14.3
2017-10-09T11:21:34.201Z,14.2
2017-10-09T11:22:36.222Z,14
2017-10-09T11:23:38.245Z,13.7
2017-10-09T11:24:40.214Z,13.5
2017-10-09T11:25:42.272Z,13.4
2017-10-09T11:26:44.512Z,13.4
2017-10-09T11:27:46.448Z,13.4
2017-10-09T11:28:48.430Z,13.5
2017-10-09T11:29:50.449Z,13.9
2017-10-09T11:30:52.405Z,14.1
2017-10-09T11:31:54.929Z,14.3
2017-10-09T11:32:56.877Z,14.3
2017-10-09T11:33:58.824Z,14.6
2017-10-09T11:35:00.814Z,14.4
2017-10-09T11:36:02.832Z,14.4
2017-10-09T11:37:05.092Z,14.1
2017-10-09T11:38:07.683Z,14
2017-10-09T11:39:09.635Z,13.8
2017-10-09T11:40:12.966Z,13.6
2017-10-09T11:41:14.976Z,13.7
2017-10-09T11:42:17.269Z,13.6
2017-10-09T11:43:19.304Z,13.5
2017-10-09T11:44:21.445Z,13.4
2017-10-09T11:45:23.421Z,13.4
2017-10-09T11:46:25.384Z,13.4
2017-10-09T11:47:27.675Z,13.5
2017-10-09T11:48:29.681Z,13.5
2017-10-09T11:49:31.723Z,13.5
2017-10-09T11:50:33.741Z,13.7
2017-10-09T11:51:35.705Z,13.5
2017-10-09T11:52:37.938Z,13.5
2017-10-09T11:53:39.924Z,13.8
2017-10-09T11:54:41.861Z,14.5
2017-10-09T11:55:43.843Z,14.8
2017-10-09T11:56:45.912Z,14.7
2017-10-09T11:57:48.198Z,14.8
2017-10-09T11:58:50.241Z,14.6
2017-10-09T11:59:52.187Z,14.8
2017-10-09T12:00:54.409Z,14.8
2017-10-09T12:01:56.384Z,14.6
2017-10-09T12:02:58.727Z,14.4
2017-10-09T12:04:00.654Z,14.2
2017-10-09T12:05:02.620Z,14.4
2017-10-09T12:06:04.593Z,14.4
2017-10-09T12:07:06.656Z,14.3
2017-10-09T12:08:09.020Z,14
2017-10-09T12:09:12.849Z,13.9
2017-10-09T12:10:14.775Z,13.7
2017-10-09T12:11:16.960Z,13.9
2017-10-09T12:12:18.952Z,13.9
2017-10-09T12:13:21.172Z,13.6
2017-10-09T12:14:23.143Z,13.7
2017-10-09T12:15:25.189Z,13.9
2017-10-09T12:16:27.200Z,13.7
2017-10-09T12:17:29.239Z,13.7
2017-10-09T12:18:31.528Z,13.7
2017-10-09T12:19:33.491Z,13.9
2017-10-09T12:20:35.556Z,14
2017-10-09T12:21:37.609Z,13.9
2017-10-09T12:22:39.597Z,14.1
2017-10-09T12:23:41.845Z,14.2
2017-10-09T12:24:43.829Z,14
2017-10-09T12:25:45.805Z,14.1
2017-10-09T12:26:47.780Z,14.1
2017-10-09T12:27:50.038Z,14
2017-10-09T12:28:52.265Z,14
2017-10-09T12:29:54.324Z,13.9
2017-10-09T12:30:56.221Z,14.1
2017-10-09T12:31:58.148Z,14.3
2017-10-09T12:33:00.168Z,14.4
2017-10-09T12:34:02.472Z,14.5
2017-10-09T12:35:04.475Z,14.5
2017-10-09T12:36:06.408Z,14.4
2017-10-09T12:37:08.413Z,14.4
2017-10-09T12:38:10.401Z,14.3
2017-10-09T12:39:12.639Z,14.3
2017-10-09T12:40:16.934Z,14.1
2017-10-09T12:41:19.988Z,14.2
2017-10-09T12:42:21.988Z,14.2
2017-10-09T12:43:23.944Z,14
2017-10-09T12:44:26.202Z,13.9
2017-10-09T12:45:28.149Z,14.1
2017-10-09T12:46:30.190Z,13.9
2017-10-09T12:47:32.100Z,13.9
2017-10-09T12:48:34.047Z,14
2017-10-09T12:49:36.282Z,14
2017-10-09T12:50:38.257Z,14
2017-10-09T12:51:40.270Z,14.1
2017-10-09T12:52:42.272Z,14.2
2017-10-09T12:53:44.304Z,14
2017-10-09T12:54:46.588Z,14.1
2017-10-09T12:55:48.559Z,14
2017-10-09T12:56:50.547Z,14
2017-10-09T12:57:52.559Z,14.1
2017-10-09T12:58:54.519Z,14.2
2017-10-09T12:59:56.912Z,14.3
2017-10-09T13:00:58.877Z,14.4
2017-10-09T13:02:00.884Z,14.4
2017-10-09T13:03:02.822Z,14.3
2017-10-09T13:04:04.808Z,14.4
2017-10-09T13:05:07.101Z,14.5
2017-10-09T13:06:11.033Z,14.6
2017-10-09T13:07:12.987Z,14.6
2017-10-09T13:08:14.967Z,14.6
2017-10-09T13:09:17.187Z,14.6
2017-10-09T13:10:19.372Z,14.6
2017-10-09T13:11:21.364Z,14.6
2017-10-09T13:12:23.422Z,14.6
2017-10-09T13:13:25.420Z,14.4
2017-10-09T13:14:27.403Z,14.5
2017-10-09T13:15:29.733Z,14.5
2017-10-09T13:16:31.689Z,14.4
2017-10-09T13:17:33.733Z,14.3
2017-10-09T13:18:35.690Z,14.4
2017-10-09T13:19:37.665Z,14.4
2017-10-09T13:20:39.882Z,14.4
2017-10-09T13:21:41.860Z,14.3
2017-10-09T13:22:44.064Z,14.3
2017-10-09T13:23:46.070Z,14.4
2017-10-09T13:24:48.107Z,14.5
2017-10-09T13:25:50.463Z,14.4
2017-10-09T13:26:52.425Z,14.4
2017-10-09T13:27:54.405Z,14.2
2017-10-09T13:28:56.339Z,14.4
2017-10-09T13:29:58.314Z,14.5
2017-10-09T13:31:02.209Z,14.4
2017-10-09T13:32:04.218Z,14.1
2017-10-09T13:33:06.523Z,14
2017-10-09T13:34:08.506Z,13.9
2017-10-09T13:35:10.482Z,13.9
2017-10-09T13:36:12.799Z,13.9
2017-10-09T13:37:15.106Z,14.2
2017-10-09T13:38:17.642Z,14.1
2017-10-09T13:39:19.519Z,14
2017-10-09T13:40:21.456Z,13.8
2017-10-09T13:41:23.737Z,13.8
2017-10-09T13:42:25.816Z,13.9
2017-10-09T13:43:27.773Z,14.1
2017-10-09T13:44:29.740Z,14.2
2017-10-09T13:45:31.798Z,14.2
2017-10-09T13:47:41.890Z,14
2017-10-09T13:49:56.709Z,14
2017-10-09T13:51:04.112Z,13.9
2017-10-09T13:52:07.064Z,13.7
2017-10-09T13:53:09.198Z,13.7
2017-10-09T13:54:12.919Z,13.8
2017-10-09T13:57:35.076Z,14
2017-10-09T14:03:22.593Z,13.8
2017-10-09T14:04:29.930Z,13.8
2017-10-09T14:05:32.004Z,13.8
2017-10-09T14:06:34.180Z,14.1
2017-10-09T14:07:41.547Z,14.2
2017-10-09T14:11:08.905Z,14.1
2017-10-09T14:13:28.904Z,13.9
2017-10-09T14:14:30.976Z,14.1
2017-10-09T14:15:33.040Z,13.9
2017-10-09T14:16:35.147Z,13.7
2017-10-09T14:17:42.538Z,13.8
2017-10-09T14:20:02.744Z,13.7
2017-10-09T14:21:04.904Z,13.8
2017-10-09T14:22:12.106Z,13.9
2017-10-09T14:23:14.265Z,13.9
2017-10-09T14:24:16.625Z,13.8
2017-10-09T14:25:18.713Z,13.8
2017-10-09T14:28:46.031Z,13.7
2017-10-09T14:30:56.482Z,13.8
2017-10-09T14:40:18.584Z,14.1
2017-10-09T14:41:20.798Z,14.1
2017-10-09T14:42:22.863Z,14
2017-10-09T14:43:25.015Z,14.1
2017-10-09T14:44:27.138Z,14.1
2017-10-09T14:45:29.305Z,14.1
2017-10-09T14:46:31.466Z,13.9
2017-10-09T14:47:33.555Z,13.8
2017-10-09T14:48:35.669Z,13.8
2017-10-09T14:49:37.766Z,13.9
2017-10-09T14:50:39.891Z,14
2017-10-09T14:51:41.985Z,14
2017-10-09T14:52:44.072Z,14
2017-10-09T14:53:46.205Z,13.9
2017-10-09T14:54:48.307Z,13.8
2017-10-09T14:55:50.442Z,13.8
2017-10-09T14:56:52.757Z,13.8
2017-10-09T14:57:54.861Z,13.6
2017-10-09T14:58:56.957Z,13.6
2017-10-09T14:59:59.097Z,13.6
2017-10-09T15:01:01.578Z,13.7
2017-10-09T15:02:03.660Z,13.7
2017-10-09T15:03:05.756Z,13.7
2017-10-09T15:04:07.919Z,13.7
2017-10-09T15:05:11.239Z,13.7
2017-10-09T15:06:13.346Z,13.4
2017-10-09T15:07:15.465Z,13.3
2017-10-09T15:08:17.578Z,13.3
2017-10-09T15:09:19.654Z,13.4
2017-10-09T15:10:21.917Z,13.4
2017-10-09T15:11:24.178Z,13.4
2017-10-09T15:12:26.316Z,13.5
2017-10-09T15:13:28.427Z,13.5
2017-10-09T15:14:30.527Z,13.4
2017-10-09T15:15:32.773Z,13.3
2017-10-09T15:16:34.880Z,13.2
2017-10-09T15:17:36.991Z,13.3
2017-10-09T15:18:39.118Z,13.4
2017-10-09T15:19:41.251Z,13.4